sensor_id;sensor_type;location;lat;lon;timestamp;P1;durP1;ratioP1;P2;durP2;ratioP2
16854;SDS011;8543;54.522;18.550;2023-04-06T00:00:34;12.10;;;4.20;;
16854;SDS011;8543;54.522;18.550;2023-04-06T00:02:59;7.60;;;3.50;;
16854;SDS011;8543;54.522;18.550;2023-04-06T00:05:25;11.90;;;4.80;;
16854;SDS011;8543;54.522;18.550;2023-04-06T00:07:52;9.00;;;4.20;;
16854;SDS011;8543;54.522;18.550;2023-04-06T00:10:19;11.40;;;4.40;;
16854;SDS011;8543;54.522;18.550;2023-04-06T00:12:44;11.10;;;3.90;;
16854;SDS011;8543;54.522;18.550;2023-04-06T00:15:10;8.80;;;4.00;;
16854;SDS011;8543;54.522;18.550;2023-04-06T00:17:35;12.30;;;4.70;;
16854;SDS011;8543;54.522;18.550;2023-04-06T00:20:01;12.70;;;5.40;;
16854;SDS011;8543;54.522;18.550;2023-04-06T00:22:26;16.10;;;6.30;;
16854;SDS011;8543;54.522;18.550;2023-04-06T00:24:51;11.60;;;5.20;;
16854;SDS011;8543;54.522;18.550;2023-04-06T00:27:17;14.40;;;5.90;;
16854;SDS011;8543;54.522;18.550;2023-04-06T00:29:43;11.70;;;5.50;;
16854;SDS011;8543;54.522;18.550;2023-04-06T00:32:09;10.60;;;5.20;;
16854;SDS011;8543;54.522;18.550;2023-04-06T00:34:35;15.40;;;5.50;;
16854;SDS011;8543;54.522;18.550;2023-04-06T00:37:00;16.00;;;6.90;;
16854;SDS011;8543;54.522;18.550;2023-04-06T00:39:25;14.20;;;6.30;;
16854;SDS011;8543;54.522;18.550;2023-04-06T00:41:51;14.20;;;6.60;;
16854;SDS011;8543;54.522;18.550;2023-04-06T00:44:17;14.80;;;6.10;;
16854;SDS011;8543;54.522;18.550;2023-04-06T00:46:43;14.60;;;6.10;;
16854;SDS011;8543;54.522;18.550;2023-04-06T00:49:09;9.70;;;5.20;;
16854;SDS011;8543;54.522;18.550;2023-04-06T00:51:35;12.50;;;6.10;;
16854;SDS011;8543;54.522;18.550;2023-04-06T00:54:00;12.10;;;6.80;;
16854;SDS011;8543;54.522;18.550;2023-04-06T00:56:26;14.90;;;6.30;;
16854;SDS011;8543;54.522;18.550;2023-04-06T00:58:51;16.20;;;6.50;;
16854;SDS011;8543;54.522;18.550;2023-04-06T01:01:17;14.60;;;6.40;;
16854;SDS011;8543;54.522;18.550;2023-04-06T01:03:42;14.00;;;6.60;;
16854;SDS011;8543;54.522;18.550;2023-04-06T01:06:09;11.00;;;6.00;;
16854;SDS011;8543;54.522;18.550;2023-04-06T01:08:34;14.40;;;5.80;;
16854;SDS011;8543;54.522;18.550;2023-04-06T01:11:01;16.00;;;6.80;;
16854;SDS011;8543;54.522;18.550;2023-04-06T01:13:26;17.10;;;6.50;;
16854;SDS011;8543;54.522;18.550;2023-04-06T01:15:52;17.10;;;7.10;;
16854;SDS011;8543;54.522;18.550;2023-04-06T01:18:17;15.50;;;7.00;;
16854;SDS011;8543;54.522;18.550;2023-04-06T01:20:43;19.40;;;6.80;;
16854;SDS011;8543;54.522;18.550;2023-04-06T01:23:08;18.30;;;7.50;;
16854;SDS011;8543;54.522;18.550;2023-04-06T01:25:34;15.90;;;6.80;;
16854;SDS011;8543;54.522;18.550;2023-04-06T01:27:59;19.50;;;6.80;;
16854;SDS011;8543;54.522;18.550;2023-04-06T01:30:25;19.30;;;7.50;;
16854;SDS011;8543;54.522;18.550;2023-04-06T01:32:50;23.40;;;8.00;;
16854;SDS011;8543;54.522;18.550;2023-04-06T01:35:17;18.30;;;6.60;;
16854;SDS011;8543;54.522;18.550;2023-04-06T01:37:43;13.30;;;5.70;;
16854;SDS011;8543;54.522;18.550;2023-04-06T01:40:09;14.60;;;5.50;;
16854;SDS011;8543;54.522;18.550;2023-04-06T01:42:36;13.20;;;5.00;;
16854;SDS011;8543;54.522;18.550;2023-04-06T01:45:02;11.70;;;4.80;;
16854;SDS011;8543;54.522;18.550;2023-04-06T01:47:27;12.40;;;5.30;;
16854;SDS011;8543;54.522;18.550;2023-04-06T01:49:53;11.60;;;4.90;;
16854;SDS011;8543;54.522;18.550;2023-04-06T01:52:18;13.10;;;5.70;;
16854;SDS011;8543;54.522;18.550;2023-04-06T01:54:44;12.60;;;4.80;;
16854;SDS011;8543;54.522;18.550;2023-04-06T01:57:10;13.60;;;5.60;;
16854;SDS011;8543;54.522;18.550;2023-04-06T01:59:36;12.50;;;5.40;;
16854;SDS011;8543;54.522;18.550;2023-04-06T02:02:01;11.70;;;5.30;;
16854;SDS011;8543;54.522;18.550;2023-04-06T02:04:27;10.80;;;4.80;;
16854;SDS011;8543;54.522;18.550;2023-04-06T02:06:52;11.40;;;5.70;;
16854;SDS011;8543;54.522;18.550;2023-04-06T02:09:17;12.80;;;5.70;;
16854;SDS011;8543;54.522;18.550;2023-04-06T02:11:43;11.40;;;5.20;;
16854;SDS011;8543;54.522;18.550;2023-04-06T02:14:08;12.90;;;5.80;;
16854;SDS011;8543;54.522;18.550;2023-04-06T02:16:33;12.20;;;5.10;;
16854;SDS011;8543;54.522;18.550;2023-04-06T02:18:59;11.70;;;5.50;;
16854;SDS011;8543;54.522;18.550;2023-04-06T02:21:24;10.70;;;5.00;;
16854;SDS011;8543;54.522;18.550;2023-04-06T02:23:50;12.40;;;5.00;;
16854;SDS011;8543;54.522;18.550;2023-04-06T02:26:15;12.50;;;5.50;;
16854;SDS011;8543;54.522;18.550;2023-04-06T02:28:41;13.50;;;5.20;;
16854;SDS011;8543;54.522;18.550;2023-04-06T02:31:07;9.90;;;4.40;;
16854;SDS011;8543;54.522;18.550;2023-04-06T02:33:33;9.80;;;4.50;;
16854;SDS011;8543;54.522;18.550;2023-04-06T02:35:58;13.40;;;5.10;;
16854;SDS011;8543;54.522;18.550;2023-04-06T02:38:24;7.90;;;4.40;;
16854;SDS011;8543;54.522;18.550;2023-04-06T02:40:49;12.20;;;4.40;;
16854;SDS011;8543;54.522;18.550;2023-04-06T02:43:15;10.50;;;4.60;;
16854;SDS011;8543;54.522;18.550;2023-04-06T02:45:42;15.00;;;5.20;;
16854;SDS011;8543;54.522;18.550;2023-04-06T02:48:07;11.40;;;4.70;;
16854;SDS011;8543;54.522;18.550;2023-04-06T02:50:32;10.00;;;4.30;;
16854;SDS011;8543;54.522;18.550;2023-04-06T02:52:58;12.00;;;4.60;;
16854;SDS011;8543;54.522;18.550;2023-04-06T02:55:23;13.00;;;4.60;;
16854;SDS011;8543;54.522;18.550;2023-04-06T02:57:49;9.60;;;4.40;;
16854;SDS011;8543;54.522;18.550;2023-04-06T03:00:14;10.60;;;3.70;;
16854;SDS011;8543;54.522;18.550;2023-04-06T03:02:40;10.10;;;4.00;;
16854;SDS011;8543;54.522;18.550;2023-04-06T03:05:06;10.20;;;4.10;;
16854;SDS011;8543;54.522;18.550;2023-04-06T03:07:31;8.00;;;3.50;;
16854;SDS011;8543;54.522;18.550;2023-04-06T03:09:57;9.70;;;3.90;;
16854;SDS011;8543;54.522;18.550;2023-04-06T03:12:22;7.90;;;3.40;;
16854;SDS011;8543;54.522;18.550;2023-04-06T03:14:48;8.90;;;3.90;;
16854;SDS011;8543;54.522;18.550;2023-04-06T03:17:13;8.10;;;3.90;;
16854;SDS011;8543;54.522;18.550;2023-04-06T03:19:39;11.50;;;5.20;;
16854;SDS011;8543;54.522;18.550;2023-04-06T03:22:04;10.40;;;4.10;;
16854;SDS011;8543;54.522;18.550;2023-04-06T03:24:30;8.30;;;3.70;;
16854;SDS011;8543;54.522;18.550;2023-04-06T03:26:55;11.60;;;4.90;;
16854;SDS011;8543;54.522;18.550;2023-04-06T03:29:21;13.30;;;4.30;;
16854;SDS011;8543;54.522;18.550;2023-04-06T03:31:46;10.50;;;4.30;;
16854;SDS011;8543;54.522;18.550;2023-04-06T03:34:12;13.50;;;6.30;;
16854;SDS011;8543;54.522;18.550;2023-04-06T03:36:37;13.00;;;6.20;;
16854;SDS011;8543;54.522;18.550;2023-04-06T03:39:03;8.60;;;3.90;;
16854;SDS011;8543;54.522;18.550;2023-04-06T03:41:28;9.20;;;3.70;;
16854;SDS011;8543;54.522;18.550;2023-04-06T03:43:54;15.90;;;6.90;;
16854;SDS011;8543;54.522;18.550;2023-04-06T03:46:19;10.50;;;4.70;;
16854;SDS011;8543;54.522;18.550;2023-04-06T03:48:45;10.00;;;4.70;;
16854;SDS011;8543;54.522;18.550;2023-04-06T03:51:13;10.70;;;5.10;;
16854;SDS011;8543;54.522;18.550;2023-04-06T03:53:38;10.50;;;4.60;;
16854;SDS011;8543;54.522;18.550;2023-04-06T03:56:04;8.70;;;4.60;;
16854;SDS011;8543;54.522;18.550;2023-04-06T03:58:30;8.50;;;4.10;;
16854;SDS011;8543;54.522;18.550;2023-04-06T04:00:56;5.30;;;2.90;;
16854;SDS011;8543;54.522;18.550;2023-04-06T04:03:21;9.60;;;2.80;;
16854;SDS011;8543;54.522;18.550;2023-04-06T04:05:48;5.20;;;2.80;;
16854;SDS011;8543;54.522;18.550;2023-04-06T04:08:15;9.60;;;2.90;;
16854;SDS011;8543;54.522;18.550;2023-04-06T04:10:40;5.10;;;2.70;;
16854;SDS011;8543;54.522;18.550;2023-04-06T04:13:05;5.70;;;3.00;;
16854;SDS011;8543;54.522;18.550;2023-04-06T04:15:31;7.00;;;2.80;;
16854;SDS011;8543;54.522;18.550;2023-04-06T04:17:56;6.30;;;2.90;;
16854;SDS011;8543;54.522;18.550;2023-04-06T04:20:22;6.50;;;3.00;;
16854;SDS011;8543;54.522;18.550;2023-04-06T04:22:47;6.80;;;3.10;;
16854;SDS011;8543;54.522;18.550;2023-04-06T04:25:13;6.50;;;2.80;;
16854;SDS011;8543;54.522;18.550;2023-04-06T04:27:38;5.90;;;2.80;;
16854;SDS011;8543;54.522;18.550;2023-04-06T04:30:04;5.80;;;3.20;;
16854;SDS011;8543;54.522;18.550;2023-04-06T04:32:30;7.20;;;2.90;;
16854;SDS011;8543;54.522;18.550;2023-04-06T04:34:56;7.00;;;2.80;;
16854;SDS011;8543;54.522;18.550;2023-04-06T04:37:21;6.00;;;2.70;;
16854;SDS011;8543;54.522;18.550;2023-04-06T04:39:46;6.60;;;2.80;;
16854;SDS011;8543;54.522;18.550;2023-04-06T04:42:12;6.00;;;3.60;;
16854;SDS011;8543;54.522;18.550;2023-04-06T04:44:38;6.40;;;2.50;;
16854;SDS011;8543;54.522;18.550;2023-04-06T04:47:04;6.40;;;2.40;;
16854;SDS011;8543;54.522;18.550;2023-04-06T04:49:30;4.20;;;2.10;;
16854;SDS011;8543;54.522;18.550;2023-04-06T04:51:55;5.50;;;2.90;;
16854;SDS011;8543;54.522;18.550;2023-04-06T04:54:21;6.20;;;2.40;;
16854;SDS011;8543;54.522;18.550;2023-04-06T04:56:46;5.10;;;2.90;;
16854;SDS011;8543;54.522;18.550;2023-04-06T04:59:11;8.40;;;3.70;;
16854;SDS011;8543;54.522;18.550;2023-04-06T05:01:37;6.70;;;3.10;;
16854;SDS011;8543;54.522;18.550;2023-04-06T05:04:02;7.50;;;3.50;;
16854;SDS011;8543;54.522;18.550;2023-04-06T05:06:28;6.40;;;3.30;;
16854;SDS011;8543;54.522;18.550;2023-04-06T05:08:53;7.20;;;3.60;;
16854;SDS011;8543;54.522;18.550;2023-04-06T05:11:18;8.10;;;3.80;;
16854;SDS011;8543;54.522;18.550;2023-04-06T05:13:44;8.50;;;4.00;;
16854;SDS011;8543;54.522;18.550;2023-04-06T05:16:10;7.80;;;4.30;;
16854;SDS011;8543;54.522;18.550;2023-04-06T05:18:36;10.20;;;4.90;;
16854;SDS011;8543;54.522;18.550;2023-04-06T05:21:01;10.60;;;5.40;;
16854;SDS011;8543;54.522;18.550;2023-04-06T05:23:27;11.20;;;5.70;;
16854;SDS011;8543;54.522;18.550;2023-04-06T05:25:52;10.90;;;6.30;;
16854;SDS011;8543;54.522;18.550;2023-04-06T05:28:17;9.10;;;6.00;;
16854;SDS011;8543;54.522;18.550;2023-04-06T05:30:43;13.50;;;7.10;;
16854;SDS011;8543;54.522;18.550;2023-04-06T05:33:09;12.20;;;6.40;;
16854;SDS011;8543;54.522;18.550;2023-04-06T05:35:35;14.40;;;6.90;;
16854;SDS011;8543;54.522;18.550;2023-04-06T05:38:01;13.10;;;6.60;;
16854;SDS011;8543;54.522;18.550;2023-04-06T05:40:26;14.20;;;7.50;;
16854;SDS011;8543;54.522;18.550;2023-04-06T05:42:52;17.10;;;9.20;;
16854;SDS011;8543;54.522;18.550;2023-04-06T05:45:17;16.30;;;9.00;;
16854;SDS011;8543;54.522;18.550;2023-04-06T05:47:43;16.20;;;8.40;;
16854;SDS011;8543;54.522;18.550;2023-04-06T05:50:10;14.50;;;8.20;;
16854;SDS011;8543;54.522;18.550;2023-04-06T05:52:36;17.50;;;9.60;;
16854;SDS011;8543;54.522;18.550;2023-04-06T05:55:02;14.30;;;9.20;;
16854;SDS011;8543;54.522;18.550;2023-04-06T05:57:27;20.60;;;10.60;;
16854;SDS011;8543;54.522;18.550;2023-04-06T05:59:53;18.40;;;8.60;;
16854;SDS011;8543;54.522;18.550;2023-04-06T06:02:18;13.20;;;8.20;;
16854;SDS011;8543;54.522;18.550;2023-04-06T06:04:44;19.70;;;9.80;;
16854;SDS011;8543;54.522;18.550;2023-04-06T06:07:10;17.70;;;8.80;;
16854;SDS011;8543;54.522;18.550;2023-04-06T06:09:35;17.90;;;8.90;;
16854;SDS011;8543;54.522;18.550;2023-04-06T06:12:00;17.30;;;8.90;;
16854;SDS011;8543;54.522;18.550;2023-04-06T06:14:26;19.10;;;9.20;;
16854;SDS011;8543;54.522;18.550;2023-04-06T06:16:53;16.10;;;8.20;;
16854;SDS011;8543;54.522;18.550;2023-04-06T06:19:19;14.40;;;8.00;;
16854;SDS011;8543;54.522;18.550;2023-04-06T06:21:44;18.00;;;8.40;;
16854;SDS011;8543;54.522;18.550;2023-04-06T06:24:10;13.60;;;8.80;;
16854;SDS011;8543;54.522;18.550;2023-04-06T06:26:35;18.60;;;9.80;;
16854;SDS011;8543;54.522;18.550;2023-04-06T06:29:02;20.70;;;10.20;;
16854;SDS011;8543;54.522;18.550;2023-04-06T06:31:30;24.80;;;9.70;;
16854;SDS011;8543;54.522;18.550;2023-04-06T06:33:55;20.40;;;9.40;;
16854;SDS011;8543;54.522;18.550;2023-04-06T06:36:21;21.50;;;8.70;;
16854;SDS011;8543;54.522;18.550;2023-04-06T06:38:46;19.30;;;8.50;;
16854;SDS011;8543;54.522;18.550;2023-04-06T06:41:12;18.70;;;9.60;;
16854;SDS011;8543;54.522;18.550;2023-04-06T06:43:37;18.60;;;9.00;;
16854;SDS011;8543;54.522;18.550;2023-04-06T06:46:03;18.20;;;8.60;;
16854;SDS011;8543;54.522;18.550;2023-04-06T06:48:28;16.20;;;8.40;;
16854;SDS011;8543;54.522;18.550;2023-04-06T06:50:54;13.00;;;8.10;;
16854;SDS011;8543;54.522;18.550;2023-04-06T06:53:19;14.30;;;8.70;;
16854;SDS011;8543;54.522;18.550;2023-04-06T06:55:45;18.40;;;9.50;;
16854;SDS011;8543;54.522;18.550;2023-04-06T06:58:10;15.00;;;9.00;;
16854;SDS011;8543;54.522;18.550;2023-04-06T07:00:36;15.60;;;9.00;;
16854;SDS011;8543;54.522;18.550;2023-04-06T07:03:01;14.90;;;9.00;;
16854;SDS011;8543;54.522;18.550;2023-04-06T07:05:27;14.20;;;8.80;;
16854;SDS011;8543;54.522;18.550;2023-04-06T07:07:53;10.90;;;7.70;;
16854;SDS011;8543;54.522;18.550;2023-04-06T07:10:19;7.90;;;6.90;;
16854;SDS011;8543;54.522;18.550;2023-04-06T07:12:45;7.80;;;6.40;;
16854;SDS011;8543;54.522;18.550;2023-04-06T07:15:11;9.40;;;7.20;;
16854;SDS011;8543;54.522;18.550;2023-04-06T07:17:36;10.90;;;8.10;;
16854;SDS011;8543;54.522;18.550;2023-04-06T07:20:02;8.70;;;7.80;;
16854;SDS011;8543;54.522;18.550;2023-04-06T07:22:27;9.10;;;7.80;;
16854;SDS011;8543;54.522;18.550;2023-04-06T07:24:53;7.40;;;6.70;;
16854;SDS011;8543;54.522;18.550;2023-04-06T07:27:18;8.70;;;6.80;;
16854;SDS011;8543;54.522;18.550;2023-04-06T07:29:44;7.20;;;6.20;;
16854;SDS011;8543;54.522;18.550;2023-04-06T07:32:09;7.10;;;6.40;;
16854;SDS011;8543;54.522;18.550;2023-04-06T07:34:35;7.70;;;6.90;;
16854;SDS011;8543;54.522;18.550;2023-04-06T07:37:00;6.80;;;6.10;;
16854;SDS011;8543;54.522;18.550;2023-04-06T07:39:26;10.60;;;6.90;;
16854;SDS011;8543;54.522;18.550;2023-04-06T07:41:52;6.50;;;5.80;;
16854;SDS011;8543;54.522;18.550;2023-04-06T07:44:17;9.40;;;6.60;;
16854;SDS011;8543;54.522;18.550;2023-04-06T07:46:43;8.00;;;6.50;;
16854;SDS011;8543;54.522;18.550;2023-04-06T07:49:08;6.40;;;5.80;;
16854;SDS011;8543;54.522;18.550;2023-04-06T07:51:37;9.00;;;5.50;;
16854;SDS011;8543;54.522;18.550;2023-04-06T07:54:03;6.90;;;5.90;;
16854;SDS011;8543;54.522;18.550;2023-04-06T07:56:28;7.40;;;5.00;;
16854;SDS011;8543;54.522;18.550;2023-04-06T07:58:54;6.20;;;5.20;;
16854;SDS011;8543;54.522;18.550;2023-04-06T08:01:21;6.40;;;5.10;;
16854;SDS011;8543;54.522;18.550;2023-04-06T08:03:47;6.40;;;4.70;;
16854;SDS011;8543;54.522;18.550;2023-04-06T08:06:12;5.80;;;3.60;;
16854;SDS011;8543;54.522;18.550;2023-04-06T08:08:37;4.80;;;3.10;;
16854;SDS011;8543;54.522;18.550;2023-04-06T08:11:03;3.90;;;3.10;;
16854;SDS011;8543;54.522;18.550;2023-04-06T08:13:28;4.10;;;2.90;;
16854;SDS011;8543;54.522;18.550;2023-04-06T08:15:54;3.50;;;2.70;;
16854;SDS011;8543;54.522;18.550;2023-04-06T08:18:19;4.00;;;2.90;;
16854;SDS011;8543;54.522;18.550;2023-04-06T08:20:45;3.40;;;2.80;;
16854;SDS011;8543;54.522;18.550;2023-04-06T08:23:10;3.80;;;2.60;;
16854;SDS011;8543;54.522;18.550;2023-04-06T08:25:36;5.10;;;2.70;;
16854;SDS011;8543;54.522;18.550;2023-04-06T08:28:02;3.80;;;2.20;;
16854;SDS011;8543;54.522;18.550;2023-04-06T08:30:28;3.60;;;2.40;;
16854;SDS011;8543;54.522;18.550;2023-04-06T08:32:54;4.40;;;2.20;;
16854;SDS011;8543;54.522;18.550;2023-04-06T08:35:19;3.10;;;2.00;;
16854;SDS011;8543;54.522;18.550;2023-04-06T08:37:45;4.90;;;2.30;;
16854;SDS011;8543;54.522;18.550;2023-04-06T08:40:11;3.90;;;1.90;;
16854;SDS011;8543;54.522;18.550;2023-04-06T08:42:39;2.40;;;1.80;;
16854;SDS011;8543;54.522;18.550;2023-04-06T08:45:06;3.90;;;1.90;;
16854;SDS011;8543;54.522;18.550;2023-04-06T08:47:34;5.00;;;2.20;;
16854;SDS011;8543;54.522;18.550;2023-04-06T08:50:00;4.40;;;2.20;;
16854;SDS011;8543;54.522;18.550;2023-04-06T08:52:31;3.70;;;2.10;;
16854;SDS011;8543;54.522;18.550;2023-04-06T08:54:57;3.00;;;1.80;;
16854;SDS011;8543;54.522;18.550;2023-04-06T08:57:23;4.60;;;2.00;;
16854;SDS011;8543;54.522;18.550;2023-04-06T08:59:49;3.70;;;1.90;;
16854;SDS011;8543;54.522;18.550;2023-04-06T09:02:15;3.00;;;1.70;;
16854;SDS011;8543;54.522;18.550;2023-04-06T09:04:42;4.60;;;2.10;;
16854;SDS011;8543;54.522;18.550;2023-04-06T09:07:08;4.20;;;2.00;;
16854;SDS011;8543;54.522;18.550;2023-04-06T09:09:34;3.70;;;1.80;;
16854;SDS011;8543;54.522;18.550;2023-04-06T09:11:59;4.40;;;1.90;;
16854;SDS011;8543;54.522;18.550;2023-04-06T09:14:37;2.90;;;1.70;;
16854;SDS011;8543;54.522;18.550;2023-04-06T09:17:03;3.30;;;1.80;;
16854;SDS011;8543;54.522;18.550;2023-04-06T09:19:28;3.80;;;1.70;;
16854;SDS011;8543;54.522;18.550;2023-04-06T09:22:15;3.00;;;1.80;;
16854;SDS011;8543;54.522;18.550;2023-04-06T09:24:41;3.40;;;1.60;;
16854;SDS011;8543;54.522;18.550;2023-04-06T09:27:10;4.60;;;1.90;;
16854;SDS011;8543;54.522;18.550;2023-04-06T09:29:36;4.70;;;1.80;;
16854;SDS011;8543;54.522;18.550;2023-04-06T09:32:05;2.50;;;1.60;;
16854;SDS011;8543;54.522;18.550;2023-04-06T09:34:31;4.30;;;2.30;;
16854;SDS011;8543;54.522;18.550;2023-04-06T09:36:57;3.60;;;2.00;;
16854;SDS011;8543;54.522;18.550;2023-04-06T09:39:23;2.70;;;1.70;;
16854;SDS011;8543;54.522;18.550;2023-04-06T09:41:52;2.80;;;1.50;;
16854;SDS011;8543;54.522;18.550;2023-04-06T09:44:19;3.40;;;1.80;;
16854;SDS011;8543;54.522;18.550;2023-04-06T09:46:45;2.90;;;1.60;;
16854;SDS011;8543;54.522;18.550;2023-04-06T09:49:11;4.50;;;1.70;;
16854;SDS011;8543;54.522;18.550;2023-04-06T09:51:38;5.10;;;1.90;;
16854;SDS011;8543;54.522;18.550;2023-04-06T09:54:20;4.00;;;1.80;;
16854;SDS011;8543;54.522;18.550;2023-04-06T09:56:47;6.20;;;2.20;;
16854;SDS011;8543;54.522;18.550;2023-04-06T09:59:30;4.00;;;1.60;;
16854;SDS011;8543;54.522;18.550;2023-04-06T10:02:13;2.10;;;1.30;;
16854;SDS011;8543;54.522;18.550;2023-04-06T10:07:34;5.00;;;1.70;;
16854;SDS011;8543;54.522;18.550;2023-04-06T10:10:01;2.80;;;1.60;;
16854;SDS011;8543;54.522;18.550;2023-04-06T10:12:27;4.00;;;2.00;;
16854;SDS011;8543;54.522;18.550;2023-04-06T10:14:53;4.40;;;1.90;;
16854;SDS011;8543;54.522;18.550;2023-04-06T10:17:19;7.50;;;2.20;;
16854;SDS011;8543;54.522;18.550;2023-04-06T10:22:24;5.40;;;1.90;;
16854;SDS011;8543;54.522;18.550;2023-04-06T10:24:53;3.30;;;1.70;;
16854;SDS011;8543;54.522;18.550;2023-04-06T10:27:27;3.30;;;1.70;;
16854;SDS011;8543;54.522;18.550;2023-04-06T10:29:53;7.40;;;2.00;;
16854;SDS011;8543;54.522;18.550;2023-04-06T10:32:19;4.10;;;1.70;;
16854;SDS011;8543;54.522;18.550;2023-04-06T10:34:44;4.80;;;1.80;;
16854;SDS011;8543;54.522;18.550;2023-04-06T10:37:10;4.00;;;1.70;;
16854;SDS011;8543;54.522;18.550;2023-04-06T10:39:46;3.00;;;1.60;;
16854;SDS011;8543;54.522;18.550;2023-04-06T10:42:13;2.70;;;1.60;;
16854;SDS011;8543;54.522;18.550;2023-04-06T10:44:42;3.00;;;1.60;;
16854;SDS011;8543;54.522;18.550;2023-04-06T10:47:15;3.60;;;1.80;;
16854;SDS011;8543;54.522;18.550;2023-04-06T10:49:42;5.40;;;1.90;;
16854;SDS011;8543;54.522;18.550;2023-04-06T10:52:08;4.70;;;1.60;;
16854;SDS011;8543;54.522;18.550;2023-04-06T10:54:33;5.20;;;2.00;;
16854;SDS011;8543;54.522;18.550;2023-04-06T10:56:59;4.60;;;1.50;;
16854;SDS011;8543;54.522;18.550;2023-04-06T10:59:28;5.30;;;1.70;;
16854;SDS011;8543;54.522;18.550;2023-04-06T11:01:53;6.60;;;1.70;;
16854;SDS011;8543;54.522;18.550;2023-04-06T11:04:20;5.20;;;1.80;;
16854;SDS011;8543;54.522;18.550;2023-04-06T11:06:49;3.50;;;1.70;;
16854;SDS011;8543;54.522;18.550;2023-04-06T11:09:28;3.70;;;1.70;;
16854;SDS011;8543;54.522;18.550;2023-04-06T11:11:54;4.50;;;1.90;;
16854;SDS011;8543;54.522;18.550;2023-04-06T11:14:21;5.50;;;1.80;;
16854;SDS011;8543;54.522;18.550;2023-04-06T11:16:47;7.30;;;2.30;;
16854;SDS011;8543;54.522;18.550;2023-04-06T11:19:14;4.70;;;1.90;;
16854;SDS011;8543;54.522;18.550;2023-04-06T11:24:19;4.10;;;1.80;;
16854;SDS011;8543;54.522;18.550;2023-04-06T11:26:55;3.20;;;1.70;;
16854;SDS011;8543;54.522;18.550;2023-04-06T11:29:22;3.60;;;1.90;;
16854;SDS011;8543;54.522;18.550;2023-04-06T11:31:53;4.10;;;1.80;;
16854;SDS011;8543;54.522;18.550;2023-04-06T11:34:25;3.50;;;1.90;;
16854;SDS011;8543;54.522;18.550;2023-04-06T11:36:56;3.30;;;1.80;;
16854;SDS011;8543;54.522;18.550;2023-04-06T11:39:23;5.60;;;1.90;;
16854;SDS011;8543;54.522;18.550;2023-04-06T11:41:52;2.60;;;1.60;;
16854;SDS011;8543;54.522;18.550;2023-04-06T11:44:37;4.30;;;2.10;;
16854;SDS011;8543;54.522;18.550;2023-04-06T11:47:06;6.20;;;1.80;;
16854;SDS011;8543;54.522;18.550;2023-04-06T11:49:32;4.10;;;1.60;;
16854;SDS011;8543;54.522;18.550;2023-04-06T11:51:59;4.50;;;2.10;;
16854;SDS011;8543;54.522;18.550;2023-04-06T11:57:01;5.70;;;1.90;;
16854;SDS011;8543;54.522;18.550;2023-04-06T11:59:27;7.20;;;2.20;;
16854;SDS011;8543;54.522;18.550;2023-04-06T12:01:52;8.00;;;2.30;;
16854;SDS011;8543;54.522;18.550;2023-04-06T12:04:18;4.30;;;2.40;;
16854;SDS011;8543;54.522;18.550;2023-04-06T12:06:44;7.00;;;2.20;;
16854;SDS011;8543;54.522;18.550;2023-04-06T12:09:09;6.30;;;2.20;;
16854;SDS011;8543;54.522;18.550;2023-04-06T12:11:35;3.50;;;1.70;;
16854;SDS011;8543;54.522;18.550;2023-04-06T12:14:00;3.60;;;1.50;;
16854;SDS011;8543;54.522;18.550;2023-04-06T12:16:29;4.10;;;1.60;;
16854;SDS011;8543;54.522;18.550;2023-04-06T12:18:58;3.80;;;1.70;;
16854;SDS011;8543;54.522;18.550;2023-04-06T12:21:25;4.10;;;1.70;;
16854;SDS011;8543;54.522;18.550;2023-04-06T12:23:52;3.60;;;1.80;;
16854;SDS011;8543;54.522;18.550;2023-04-06T12:26:17;4.40;;;1.70;;
16854;SDS011;8543;54.522;18.550;2023-04-06T12:28:43;2.50;;;1.40;;
16854;SDS011;8543;54.522;18.550;2023-04-06T12:31:19;4.40;;;1.80;;
16854;SDS011;8543;54.522;18.550;2023-04-06T12:33:49;2.10;;;1.30;;
16854;SDS011;8543;54.522;18.550;2023-04-06T12:36:15;3.30;;;1.50;;
16854;SDS011;8543;54.522;18.550;2023-04-06T12:38:44;5.10;;;1.80;;
16854;SDS011;8543;54.522;18.550;2023-04-06T12:41:11;3.60;;;1.60;;
16854;SDS011;8543;54.522;18.550;2023-04-06T12:43:36;2.80;;;1.60;;
16854;SDS011;8543;54.522;18.550;2023-04-06T12:46:02;2.30;;;1.50;;
16854;SDS011;8543;54.522;18.550;2023-04-06T12:48:27;1.50;;;1.40;;
16854;SDS011;8543;54.522;18.550;2023-04-06T12:50:57;3.30;;;1.60;;
16854;SDS011;8543;54.522;18.550;2023-04-06T12:53:24;3.30;;;1.80;;
16854;SDS011;8543;54.522;18.550;2023-04-06T12:55:50;2.90;;;1.50;;
16854;SDS011;8543;54.522;18.550;2023-04-06T12:58:16;2.00;;;1.40;;
16854;SDS011;8543;54.522;18.550;2023-04-06T13:00:42;4.10;;;1.60;;
16854;SDS011;8543;54.522;18.550;2023-04-06T13:03:07;2.90;;;1.50;;
16854;SDS011;8543;54.522;18.550;2023-04-06T13:05:33;4.00;;;1.50;;
16854;SDS011;8543;54.522;18.550;2023-04-06T13:07:59;4.30;;;1.90;;
16854;SDS011;8543;54.522;18.550;2023-04-06T13:10:24;4.00;;;1.60;;
16854;SDS011;8543;54.522;18.550;2023-04-06T13:12:50;4.30;;;1.70;;
16854;SDS011;8543;54.522;18.550;2023-04-06T13:15:16;5.20;;;1.60;;
16854;SDS011;8543;54.522;18.550;2023-04-06T13:17:41;4.60;;;1.50;;
16854;SDS011;8543;54.522;18.550;2023-04-06T13:20:07;3.70;;;1.70;;
16854;SDS011;8543;54.522;18.550;2023-04-06T13:22:32;3.90;;;1.70;;
16854;SDS011;8543;54.522;18.550;2023-04-06T13:24:58;4.30;;;1.70;;
16854;SDS011;8543;54.522;18.550;2023-04-06T13:27:23;2.40;;;1.30;;
16854;SDS011;8543;54.522;18.550;2023-04-06T13:29:49;3.40;;;1.50;;
16854;SDS011;8543;54.522;18.550;2023-04-06T13:32:14;4.30;;;1.80;;
16854;SDS011;8543;54.522;18.550;2023-04-06T13:34:40;3.50;;;1.50;;
16854;SDS011;8543;54.522;18.550;2023-04-06T13:37:10;2.60;;;1.40;;
16854;SDS011;8543;54.522;18.550;2023-04-06T13:39:38;5.50;;;1.90;;
16854;SDS011;8543;54.522;18.550;2023-04-06T13:42:04;6.40;;;2.00;;
16854;SDS011;8543;54.522;18.550;2023-04-06T13:44:30;4.20;;;1.60;;
16854;SDS011;8543;54.522;18.550;2023-04-06T13:46:56;2.90;;;1.60;;
16854;SDS011;8543;54.522;18.550;2023-04-06T13:49:21;4.40;;;2.00;;
16854;SDS011;8543;54.522;18.550;2023-04-06T13:51:47;5.70;;;2.10;;
16854;SDS011;8543;54.522;18.550;2023-04-06T13:54:12;5.10;;;1.80;;
16854;SDS011;8543;54.522;18.550;2023-04-06T13:56:38;4.20;;;1.80;;
16854;SDS011;8543;54.522;18.550;2023-04-06T13:59:03;3.20;;;1.70;;
16854;SDS011;8543;54.522;18.550;2023-04-06T14:01:29;3.40;;;1.80;;
16854;SDS011;8543;54.522;18.550;2023-04-06T14:03:54;5.00;;;1.80;;
16854;SDS011;8543;54.522;18.550;2023-04-06T14:06:20;7.00;;;2.20;;
16854;SDS011;8543;54.522;18.550;2023-04-06T14:08:45;6.00;;;2.60;;
16854;SDS011;8543;54.522;18.550;2023-04-06T14:11:12;5.60;;;2.20;;
16854;SDS011;8543;54.522;18.550;2023-04-06T14:13:38;5.40;;;1.60;;
16854;SDS011;8543;54.522;18.550;2023-04-06T14:16:04;4.20;;;1.80;;
16854;SDS011;8543;54.522;18.550;2023-04-06T14:18:30;6.00;;;1.80;;
16854;SDS011;8543;54.522;18.550;2023-04-06T14:20:59;4.50;;;2.00;;
16854;SDS011;8543;54.522;18.550;2023-04-06T14:23:27;5.60;;;2.20;;
16854;SDS011;8543;54.522;18.550;2023-04-06T14:26:03;6.30;;;2.60;;
16854;SDS011;8543;54.522;18.550;2023-04-06T14:28:29;3.80;;;1.90;;
16854;SDS011;8543;54.522;18.550;2023-04-06T14:30:55;4.30;;;1.80;;
16854;SDS011;8543;54.522;18.550;2023-04-06T14:33:21;5.20;;;1.90;;
16854;SDS011;8543;54.522;18.550;2023-04-06T14:35:46;5.30;;;1.80;;
16854;SDS011;8543;54.522;18.550;2023-04-06T14:38:12;3.30;;;1.50;;
16854;SDS011;8543;54.522;18.550;2023-04-06T14:40:37;3.50;;;1.60;;
16854;SDS011;8543;54.522;18.550;2023-04-06T14:43:03;4.30;;;1.90;;
16854;SDS011;8543;54.522;18.550;2023-04-06T14:45:29;4.30;;;1.70;;
16854;SDS011;8543;54.522;18.550;2023-04-06T14:47:54;3.00;;;1.50;;